sensor_id;sensor_type;location;lat;lon;timestamp;pressure;altitude;pressure_sealevel;temperature;humidity
23164;BME280;31429;42.674;23.350;2022-08-11T03:00:52;94759.88;;;18.04;100.00
23164;BME280;31429;42.674;23.350;2022-08-11T03:01:59;94840.34;;;18.39;100.00
23164;BME280;31429;42.674;23.350;2022-08-11T03:03:13;94873.22;;;18.51;100.00
23164;BME280;31429;42.674;23.350;2022-08-11T03:04:20;94796.84;;;18.06;100.00
23164;BME280;31429;42.674;23.350;2022-08-11T03:05:30;94849.56;;;18.43;100.00
23164;BME280;31429;42.674;23.350;2022-08-11T03:06:38;94706.78;;;17.47;100.00
23164;BME280;31429;42.674;23.350;2022-08-11T03:08:14;94772.28;;;17.87;100.00
23164;BME280;31429;42.674;23.350;2022-08-11T03:09:23;94875.06;;;18.62;100.00
23164;BME280;31429;42.674;23.350;2022-08-11T03:10:34;94880.47;;;18.71;100.00
23164;BME280;31429;42.674;23.350;2022-08-11T03:11:49;94890.75;;;18.73;100.00
23164;BME280;31429;42.674;23.350;2022-08-11T03:13:41;94878.69;;;18.59;100.00
23164;BME280;31429;42.674;23.350;2022-08-11T03:15:06;94752.81;;;17.81;100.00
23164;BME280;31429;42.674;23.350;2022-08-11T03:16:45;94870.16;;;18.32;100.00
23164;BME280;31429;42.674;23.350;2022-08-11T03:18:09;94886.00;;;18.40;100.00
23164;BME280;31429;42.674;23.350;2022-08-11T03:19:17;94796.06;;;17.79;100.00
23164;BME280;31429;42.674;23.350;2022-08-11T03:20:30;94874.63;;;18.30;100.00
23164;BME280;31429;42.674;23.350;2022-08-11T03:21:42;94747.59;;;17.56;100.00
23164;BME280;31429;42.674;23.350;2022-08-11T03:22:51;94838.34;;;18.17;100.00
23164;BME280;31429;42.674;23.350;2022-08-11T03:24:02;94888.03;;;18.49;100.00
23164;BME280;31429;42.674;23.350;2022-08-11T03:25:08;94756.72;;;17.74;100.00
23164;BME280;31429;42.674;23.350;2022-08-11T03:26:21;94879.59;;;18.46;100.00
23164;BME280;31429;42.674;23.350;2022-08-11T03:27:33;94831.38;;;18.05;100.00
23164;BME280;31429;42.674;23.350;2022-08-11T03:29:05;94871.91;;;18.31;100.00
23164;BME280;31429;42.674;23.350;2022-08-11T03:30:13;94767.44;;;17.55;100.00
23164;BME280;31429;42.674;23.350;2022-08-11T03:31:24;94828.38;;;17.99;100.00
23164;BME280;31429;42.674;23.350;2022-08-11T03:32:33;94868.88;;;18.12;100.00
23164;BME280;31429;42.674;23.350;2022-08-11T03:33:43;94862.50;;;18.30;100.00
23164;BME280;31429;42.674;23.350;2022-08-11T03:35:04;94742.44;;;17.56;100.00
23164;BME280;31429;42.674;23.350;2022-08-11T03:36:20;94841.06;;;18.28;100.00
23164;BME280;31429;42.674;23.350;2022-08-11T03:37:50;94799.34;;;18.08;100.00
23164;BME280;31429;42.674;23.350;2022-08-11T03:39:04;94791.13;;;18.01;100.00
23164;BME280;31429;42.674;23.350;2022-08-11T03:40:48;94787.59;;;18.02;100.00
23164;BME280;31429;42.674;23.350;2022-08-11T03:48:12;94842.56;;;18.06;100.00
23164;BME280;31429;42.674;23.350;2022-08-11T03:49:49;94782.28;;;17.52;100.00
23164;BME280;31429;42.674;23.350;2022-08-11T03:51:05;94688.25;;;17.01;100.00
23164;BME280;31429;42.674;23.350;2022-08-11T03:52:17;94762.50;;;17.38;100.00
23164;BME280;31429;42.674;23.350;2022-08-11T03:54:02;94780.53;;;17.52;100.00
23164;BME280;31429;42.674;23.350;2022-08-11T03:55:18;94802.84;;;17.67;100.00
23164;BME280;31429;42.674;23.350;2022-08-11T03:58:29;94807.16;;;17.94;100.00
23164;BME280;31429;42.674;23.350;2022-08-11T04:00:07;94792.56;;;17.93;100.00
23164;BME280;31429;42.674;23.350;2022-08-11T04:01:39;94872.78;;;18.45;100.00
23164;BME280;31429;42.674;23.350;2022-08-11T04:04:55;94788.94;;;17.95;100.00
23164;BME280;31429;42.674;23.350;2022-08-11T04:39:26;94891.78;;;18.96;100.00
23164;BME280;31429;42.674;23.350;2022-08-11T04:43:14;94754.81;;;18.15;100.00
23164;BME280;31429;42.674;23.350;2022-08-11T04:46:44;94826.22;;;18.70;100.00
23164;BME280;31429;42.674;23.350;2022-08-11T04:57:39;94820.53;;;19.14;100.00
23164;BME280;31429;42.674;23.350;2022-08-11T05:17:30;94782.59;;;19.49;100.00
23164;BME280;31429;42.674;23.350;2022-08-11T05:18:53;94823.78;;;20.12;100.00
23164;BME280;31429;42.674;23.350;2022-08-11T05:20:15;94877.00;;;20.41;100.00
23164;BME280;31429;42.674;23.350;2022-08-11T05:21:39;94727.16;;;19.74;100.00
23164;BME280;31429;42.674;23.350;2022-08-11T05:23:06;94748.69;;;19.52;100.00
23164;BME280;31429;42.674;23.350;2022-08-11T05:26:09;94799.09;;;19.72;100.00
23164;BME280;31429;42.674;23.350;2022-08-11T05:27:57;94834.59;;;19.95;100.00
23164;BME280;31429;42.674;23.350;2022-08-11T05:29:47;94848.72;;;19.91;100.00
23164;BME280;31429;42.674;23.350;2022-08-11T05:31:14;94900.56;;;20.27;100.00
23164;BME280;31429;42.674;23.350;2022-08-11T05:32:41;94687.41;;;18.91;100.00
23164;BME280;31429;42.674;23.350;2022-08-11T05:34:09;94749.88;;;19.35;100.00
23164;BME280;31429;42.674;23.350;2022-08-11T05:45:27;94763.50;;;19.74;100.00
23164;BME280;31429;42.674;23.350;2022-08-11T05:46:49;94743.38;;;19.54;100.00
23164;BME280;31429;42.674;23.350;2022-08-11T05:48:14;94843.00;;;20.33;100.00
23164;BME280;31429;42.674;23.350;2022-08-11T05:49:35;94901.03;;;20.67;100.00
23164;BME280;31429;42.674;23.350;2022-08-11T05:50:58;94877.28;;;20.60;100.00
23164;BME280;31429;42.674;23.350;2022-08-11T05:52:23;94819.63;;;20.33;100.00
23164;BME280;31429;42.674;23.350;2022-08-11T05:53:50;94892.47;;;20.89;100.00
23164;BME280;31429;42.674;23.350;2022-08-11T05:55:13;94732.41;;;19.96;100.00
23164;BME280;31429;42.674;23.350;2022-08-11T06:06:58;94711.63;;;20.64;100.00
23164;BME280;31429;42.674;23.350;2022-08-11T06:08:26;94823.88;;;21.13;100.00
23164;BME280;31429;42.674;23.350;2022-08-11T06:09:51;94733.25;;;20.42;100.00
23164;BME280;31429;42.674;23.350;2022-08-11T06:11:10;94719.47;;;20.18;100.00
23164;BME280;31429;42.674;23.350;2022-08-11T06:12:57;94766.31;;;20.62;100.00
23164;BME280;31429;42.674;23.350;2022-08-11T06:14:02;94890.81;;;21.65;100.00
23164;BME280;31429;42.674;23.350;2022-08-11T06:15:07;94821.25;;;21.02;100.00
23164;BME280;31429;42.674;23.350;2022-08-11T06:16:24;94713.38;;;20.30;100.00
23164;BME280;31429;42.674;23.350;2022-08-11T06:17:58;94902.06;;;21.55;100.00
23164;BME280;31429;42.674;23.350;2022-08-11T06:19:06;94780.59;;;21.12;100.00
23164;BME280;31429;42.674;23.350;2022-08-11T06:20:14;94843.69;;;21.37;100.00
23164;BME280;31429;42.674;23.350;2022-08-11T06:21:17;94788.75;;;20.97;100.00
23164;BME280;31429;42.674;23.350;2022-08-11T06:24:51;94765.56;;;21.27;100.00
23164;BME280;31429;42.674;23.350;2022-08-11T06:25:54;94712.06;;;21.02;100.00
23164;BME280;31429;42.674;23.350;2022-08-11T06:27:21;94823.50;;;21.72;100.00
23164;BME280;31429;42.674;23.350;2022-08-11T06:28:48;94826.09;;;22.15;100.00
23164;BME280;31429;42.674;23.350;2022-08-11T06:30:13;94822.81;;;22.13;100.00
23164;BME280;31429;42.674;23.350;2022-08-11T06:32:03;94824.63;;;22.01;100.00
23164;BME280;31429;42.674;23.350;2022-08-11T06:43:29;94895.81;;;22.75;100.00
23164;BME280;31429;42.674;23.350;2022-08-11T06:44:41;94809.34;;;22.08;100.00
23164;BME280;31429;42.674;23.350;2022-08-11T06:47:35;94915.69;;;22.97;100.00
23164;BME280;31429;42.674;23.350;2022-08-11T06:48:59;94912.03;;;22.78;100.00
23164;BME280;31429;42.674;23.350;2022-08-11T06:50:22;94807.63;;;22.18;100.00
23164;BME280;31429;42.674;23.350;2022-08-11T06:52:19;94887.34;;;22.62;100.00
23164;BME280;31429;42.674;23.350;2022-08-11T06:55:23;94911.63;;;23.24;100.00
23164;BME280;31429;42.674;23.350;2022-08-11T06:57:17;94890.88;;;23.23;100.00
23164;BME280;31429;42.674;23.350;2022-08-11T06:58:44;94711.75;;;22.12;100.00
23164;BME280;31429;42.674;23.350;2022-08-11T07:00:08;94736.81;;;22.75;100.00
23164;BME280;31429;42.674;23.350;2022-08-11T07:01:55;94828.41;;;23.71;98.57
23164;BME280;31429;42.674;23.350;2022-08-11T07:03:47;94759.84;;;22.70;100.00
23164;BME280;31429;42.674;23.350;2022-08-11T07:15:59;94817.44;;;23.37;100.00
23164;BME280;31429;42.674;23.350;2022-08-11T07:17:26;94761.38;;;22.82;94.38
23164;BME280;31429;42.674;23.350;2022-08-11T07:19:17;94835.41;;;23.21;95.92
23164;BME280;31429;42.674;23.350;2022-08-11T07:20:45;94727.56;;;22.20;100.00
23164;BME280;31429;42.674;23.350;2022-08-11T07:22:11;94905.31;;;23.27;100.00
23164;BME280;31429;42.674;23.350;2022-08-11T07:23:56;94744.59;;;22.45;100.00
23164;BME280;31429;42.674;23.350;2022-08-11T07:27:41;94895.31;;;23.62;99.88
23164;BME280;31429;42.674;23.350;2022-08-11T07:29:19;94893.78;;;23.60;100.00
23164;BME280;31429;42.674;23.350;2022-08-11T07:30:43;94841.28;;;23.43;100.00
23164;BME280;31429;42.674;23.350;2022-08-11T08:23:45;94794.91;;;24.99;74.50
23164;BME280;31429;42.674;23.350;2022-08-11T08:25:00;94873.56;;;25.34;78.27
23164;BME280;31429;42.674;23.350;2022-08-11T08:27:14;94871.44;;;25.57;83.62
23164;BME280;31429;42.674;23.350;2022-08-11T08:28:42;94696.06;;;24.10;81.39
23164;BME280;31429;42.674;23.350;2022-08-11T08:29:51;94890.84;;;25.54;80.57
23164;BME280;31429;42.674;23.350;2022-08-11T08:31:14;94871.50;;;25.92;79.01
23164;BME280;31429;42.674;23.350;2022-08-11T08:32:42;94706.75;;;24.82;77.07
23164;BME280;31429;42.674;23.350;2022-08-11T08:35:23;94799.88;;;26.01;80.87
23164;BME280;31429;42.674;23.350;2022-08-11T08:37:01;94695.00;;;25.58;73.27
23164;BME280;31429;42.674;23.350;2022-08-11T09:05:32;94853.41;;;25.99;73.64
23164;BME280;31429;42.674;23.350;2022-08-11T09:06:33;94762.03;;;25.51;74.50
23164;BME280;31429;42.674;23.350;2022-08-11T09:07:35;94857.34;;;25.58;76.74
23164;BME280;31429;42.674;23.350;2022-08-11T09:08:36;94854.31;;;25.26;76.90
23164;BME280;31429;42.674;23.350;2022-08-11T09:09:41;94852.31;;;25.00;79.22
23164;BME280;31429;42.674;23.350;2022-08-11T09:10:44;94852.34;;;24.91;79.59
23164;BME280;31429;42.674;23.350;2022-08-11T09:11:46;94802.03;;;24.60;80.06
23164;BME280;31429;42.674;23.350;2022-08-11T09:12:53;94854.78;;;25.11;84.60
23164;BME280;31429;42.674;23.350;2022-08-11T09:13:55;94851.97;;;25.23;83.40
23164;BME280;31429;42.674;23.350;2022-08-11T09:14:56;94855.28;;;25.15;80.96
23164;BME280;31429;42.674;23.350;2022-08-11T09:16:04;94828.38;;;24.95;82.15
23164;BME280;31429;42.674;23.350;2022-08-11T09:17:05;94850.69;;;24.99;82.39
23164;BME280;31429;42.674;23.350;2022-08-11T09:18:06;94833.69;;;25.13;82.45
23164;BME280;31429;42.674;23.350;2022-08-11T09:19:08;94777.16;;;24.93;83.62
23164;BME280;31429;42.674;23.350;2022-08-11T09:20:13;94821.06;;;25.63;79.52
23164;BME280;31429;42.674;23.350;2022-08-11T09:21:16;94841.13;;;25.99;76.97
23164;BME280;31429;42.674;23.350;2022-08-11T09:22:21;94835.09;;;26.16;72.41
23164;BME280;31429;42.674;23.350;2022-08-11T09:23:41;94834.63;;;26.21;71.86
23164;BME280;31429;42.674;23.350;2022-08-11T09:25:02;94839.47;;;25.98;70.16
23164;BME280;31429;42.674;23.350;2022-08-11T09:26:21;94791.47;;;25.80;68.94
23164;BME280;31429;42.674;23.350;2022-08-11T09:27:41;94824.28;;;26.37;70.86
23164;BME280;31429;42.674;23.350;2022-08-11T09:28:43;94832.78;;;26.57;65.30
23164;BME280;31429;42.674;23.350;2022-08-11T09:29:44;94823.97;;;26.22;67.16
23164;BME280;31429;42.674;23.350;2022-08-11T09:30:47;94824.28;;;26.37;67.91
23164;BME280;31429;42.674;23.350;2022-08-11T09:31:53;94834.63;;;26.21;70.30
23164;BME280;31429;42.674;23.350;2022-08-11T09:32:56;94805.09;;;25.84;65.31
23164;BME280;31429;42.674;23.350;2022-08-11T09:34:00;94839.28;;;26.27;76.47
23164;BME280;31429;42.674;23.350;2022-08-11T09:35:01;94839.78;;;26.48;72.65
23164;BME280;31429;42.674;23.350;2022-08-11T09:36:04;94814.91;;;26.78;79.51
23164;BME280;31429;42.674;23.350;2022-08-11T09:37:28;94834.75;;;26.55;57.57
23164;BME280;31429;42.674;23.350;2022-08-11T09:38:49;94826.63;;;26.83;56.58
23164;BME280;31429;42.674;23.350;2022-08-11T09:40:14;94828.34;;;26.75;56.67
23164;BME280;31429;42.674;23.350;2022-08-11T09:41:31;94829.47;;;26.90;57.49
23164;BME280;31429;42.674;23.350;2022-08-11T09:42:32;94832.09;;;26.90;57.12
23164;BME280;31429;42.674;23.350;2022-08-11T09:44:03;94831.19;;;26.38;60.52
23164;BME280;31429;42.674;23.350;2022-08-11T09:45:24;94832.44;;;26.52;62.38
23164;BME280;31429;42.674;23.350;2022-08-11T09:46:26;94830.63;;;26.52;59.30
23164;BME280;31429;42.674;23.350;2022-08-11T09:47:29;94819.28;;;26.69;59.90
23164;BME280;31429;42.674;23.350;2022-08-11T09:48:44;94828.84;;;26.35;58.87
23164;BME280;31429;42.674;23.350;2022-08-11T09:49:46;94827.25;;;26.07;59.79
23164;BME280;31429;42.674;23.350;2022-08-11T09:50:51;94788.41;;;25.85;60.93
23164;BME280;31429;42.674;23.350;2022-08-11T09:51:52;94802.97;;;25.69;62.22
23164;BME280;31429;42.674;23.350;2022-08-11T09:52:54;94760.78;;;25.73;63.36
23164;BME280;31429;42.674;23.350;2022-08-11T09:53:58;94826.09;;;26.19;63.97
23164;BME280;31429;42.674;23.350;2022-08-11T09:55:00;94822.66;;;26.36;66.69
23164;BME280;31429;42.674;23.350;2022-08-11T09:56:03;94799.06;;;26.18;67.07
23164;BME280;31429;42.674;23.350;2022-08-11T09:57:24;94799.25;;;26.43;61.32
23164;BME280;31429;42.674;23.350;2022-08-11T09:58:44;94812.31;;;26.17;62.37
23164;BME280;31429;42.674;23.350;2022-08-11T09:59:44;94815.97;;;26.24;63.70
23164;BME280;31429;42.674;23.350;2022-08-11T10:00:48;94811.63;;;26.33;64.82
23164;BME280;31429;42.674;23.350;2022-08-11T10:01:56;94815.03;;;26.25;64.47
23164;BME280;31429;42.674;23.350;2022-08-11T10:02:58;94748.59;;;25.99;66.98
23164;BME280;31429;42.674;23.350;2022-08-11T10:04:07;94809.00;;;26.76;66.24
23164;BME280;31429;42.674;23.350;2022-08-11T10:05:08;94750.75;;;26.21;67.91
23164;BME280;31429;42.674;23.350;2022-08-11T10:06:29;94812.28;;;26.52;70.79
23164;BME280;31429;42.674;23.350;2022-08-11T10:07:50;94809.44;;;26.46;70.66
23164;BME280;31429;42.674;23.350;2022-08-11T10:08:53;94795.81;;;25.89;69.74
23164;BME280;31429;42.674;23.350;2022-08-11T10:09:58;94739.69;;;25.74;74.57
23164;BME280;31429;42.674;23.350;2022-08-11T10:11:00;94773.59;;;25.93;74.59
23164;BME280;31429;42.674;23.350;2022-08-11T10:12:03;94789.53;;;26.35;76.06
23164;BME280;31429;42.674;23.350;2022-08-11T10:13:07;94770.16;;;26.54;76.15
23164;BME280;31429;42.674;23.350;2022-08-11T10:14:09;94802.06;;;26.67;65.39
23164;BME280;31429;42.674;23.350;2022-08-11T10:15:30;94793.38;;;26.66;66.61
23164;BME280;31429;42.674;23.350;2022-08-11T10:16:36;94797.03;;;26.73;67.70
23164;BME280;31429;42.674;23.350;2022-08-11T10:17:42;94799.09;;;26.62;66.74
23164;BME280;31429;42.674;23.350;2022-08-11T10:19:07;94776.28;;;26.62;65.62
23164;BME280;31429;42.674;23.350;2022-08-11T10:20:09;94799.22;;;26.60;67.84
23164;BME280;31429;42.674;23.350;2022-08-11T10:21:13;94802.41;;;26.72;67.07
23164;BME280;31429;42.674;23.350;2022-08-11T10:22:15;94798.06;;;26.80;65.07
23164;BME280;31429;42.674;23.350;2022-08-11T10:23:37;94795.81;;;26.68;64.67
23164;BME280;31429;42.674;23.350;2022-08-11T10:24:59;94803.44;;;27.05;71.38
23164;BME280;31429;42.674;23.350;2022-08-11T10:26:19;94784.44;;;26.59;66.49
23164;BME280;31429;42.674;23.350;2022-08-11T10:27:41;94788.75;;;26.43;66.66
23164;BME280;31429;42.674;23.350;2022-08-11T10:28:43;94798.25;;;26.61;64.40
23164;BME280;31429;42.674;23.350;2022-08-11T10:29:44;94798.13;;;26.71;60.55
23164;BME280;31429;42.674;23.350;2022-08-11T10:31:05;94806.22;;;26.52;62.89
23164;BME280;31429;42.674;23.350;2022-08-11T10:32:25;94806.31;;;26.42;63.70
23164;BME280;31429;42.674;23.350;2022-08-11T10:33:45;94810.97;;;26.31;66.83
23164;BME280;31429;42.674;23.350;2022-08-11T10:35:06;94785.72;;;26.30;65.94
23164;BME280;31429;42.674;23.350;2022-08-11T10:36:08;94802.34;;;26.81;67.56
23164;BME280;31429;42.674;23.350;2022-08-11T10:37:09;94785.94;;;26.79;66.59
23164;BME280;31429;42.674;23.350;2022-08-11T10:38:12;94749.34;;;26.78;63.60
23164;BME280;31429;42.674;23.350;2022-08-11T10:39:17;94799.16;;;26.96;61.83
23164;BME280;31429;42.674;23.350;2022-08-11T10:40:21;94749.56;;;26.59;62.31
23164;BME280;31429;42.674;23.350;2022-08-11T10:41:22;94757.69;;;26.73;64.24
23164;BME280;31429;42.674;23.350;2022-08-11T10:42:42;94771.81;;;27.06;65.88
23164;BME280;31429;42.674;23.350;2022-08-11T10:44:03;94801.34;;;27.08;61.61
23164;BME280;31429;42.674;23.350;2022-08-11T10:45:07;94772.59;;;26.73;61.46
23164;BME280;31429;42.674;23.350;2022-08-11T10:46:28;94792.16;;;26.78;62.91
23164;BME280;31429;42.674;23.350;2022-08-11T10:47:48;94784.00;;;27.15;59.67
23164;BME280;31429;42.674;23.350;2022-08-11T10:48:49;94776.84;;;27.00;60.12
23164;BME280;31429;42.674;23.350;2022-08-11T10:49:51;94787.66;;;26.97;54.59
23164;BME280;31429;42.674;23.350;2022-08-11T10:51:12;94779.41;;;26.83;54.39
23164;BME280;31429;42.674;23.350;2022-08-11T10:52:13;94697.09;;;26.59;65.91
23164;BME280;31429;42.674;23.350;2022-08-11T10:53:34;94767.53;;;27.05;57.16
23164;BME280;31429;42.674;23.350;2022-08-11T10:54:54;94611.72;;;26.05;55.09
23164;BME280;31429;42.674;23.350;2022-08-11T10:56:16;94753.31;;;26.82;57.68
23164;BME280;31429;42.674;23.350;2022-08-11T10:57:36;94767.94;;;27.18;58.42
23164;BME280;31429;42.674;23.350;2022-08-11T10:58:56;94770.28;;;27.29;56.61
23164;BME280;31429;42.674;23.350;2022-08-11T10:59:57;94768.84;;;27.01;56.15
23164;BME280;31429;42.674;23.350;2022-08-11T11:00:58;94780.28;;;26.92;57.24
23164;BME280;31429;42.674;23.350;2022-08-11T11:02:00;94787.28;;;26.83;56.51
23164;BME280;31429;42.674;23.350;2022-08-11T11:03:01;94780.94;;;26.94;55.48
23164;BME280;31429;42.674;23.350;2022-08-11T11:04:07;94751.72;;;26.89;55.57
23164;BME280;31429;42.674;23.350;2022-08-11T11:05:15;94779.69;;;27.06;53.81
23164;BME280;31429;42.674;23.350;2022-08-11T11:06:24;94732.72;;;26.95;53.03
23164;BME280;31429;42.674;23.350;2022-08-11T11:07:35;94758.97;;;27.37;53.99
23164;BME280;31429;42.674;23.350;2022-08-11T11:08:43;94772.22;;;27.27;53.46
23164;BME280;31429;42.674;23.350;2022-08-11T11:09:56;94773.28;;;27.43;54.08
23164;BME280;31429;42.674;23.350;2022-08-11T11:10:58;94739.75;;;27.36;52.66
23164;BME280;31429;42.674;23.350;2022-08-11T11:12:06;94763.66;;;27.59;53.10
23164;BME280;31429;42.674;23.350;2022-08-11T11:13:27;94766.25;;;27.43;55.77
23164;BME280;31429;42.674;23.350;2022-08-11T11:14:49;94752.38;;;27.67;52.69
23164;BME280;31429;42.674;23.350;2022-08-11T11:16:10;94757.81;;;27.31;51.74
23164;BME280;31429;42.674;23.350;2022-08-11T11:17:47;94710.47;;;26.73;52.40
23164;BME280;31429;42.674;23.350;2022-08-11T11:18:58;94774.84;;;26.68;54.23
23164;BME280;31429;42.674;23.350;2022-08-11T11:20:02;94742.25;;;26.70;56.80
23164;BME280;31429;42.674;23.350;2022-08-11T11:21:06;94769.56;;;26.86;55.12
23164;BME280;31429;42.674;23.350;2022-08-11T11:22:09;94762.22;;;26.89;55.46
23164;BME280;31429;42.674;23.350;2022-08-11T11:23:36;94767.22;;;27.08;58.12
23164;BME280;31429;42.674;23.350;2022-08-11T11:24:44;94757.75;;;27.15;57.27
23164;BME280;31429;42.674;23.350;2022-08-11T11:25:57;94743.06;;;27.38;56.95
23164;BME280;31429;42.674;23.350;2022-08-11T11:27:16;94772.38;;;27.60;53.70
23164;BME280;31429;42.674;23.350;2022-08-11T11:28:31;94744.47;;;27.25;54.27
23164;BME280;31429;42.674;23.350;2022-08-11T11:29:49;94779.31;;;27.35;53.35
23164;BME280;31429;42.674;23.350;2022-08-11T11:31:06;94775.00;;;27.26;57.32
23164;BME280;31429;42.674;23.350;2022-08-11T11:32:17;94768.25;;;27.57;58.63
23164;BME280;31429;42.674;23.350;2022-08-11T11:33:25;94743.00;;;27.64;55.26
23164;BME280;31429;42.674;23.350;2022-08-11T11:35:00;94769.72;;;28.10;60.31
23164;BME280;31429;42.674;23.350;2022-08-11T11:36:11;94771.41;;;27.77;52.27
23164;BME280;31429;42.674;23.350;2022-08-11T11:37:15;94767.31;;;27.82;53.80
23164;BME280;31429;42.674;23.350;2022-08-11T11:38:16;94776.03;;;27.91;53.43
23164;BME280;31429;42.674;23.350;2022-08-11T11:39:21;94768.34;;;27.39;52.59
23164;BME280;31429;42.674;23.350;2022-08-11T11:40:23;94775.25;;;27.40;53.50
23164;BME280;31429;42.674;23.350;2022-08-11T11:41:24;94754.94;;;27.17;54.11
23164;BME280;31429;42.674;23.350;2022-08-11T11:42:27;94760.31;;;26.73;53.68
23164;BME280;31429;42.674;23.350;2022-08-11T11:43:29;94751.50;;;26.57;55.45
23164;BME280;31429;42.674;23.350;2022-08-11T11:44:30;94768.31;;;26.72;53.89
23164;BME280;31429;42.674;23.350;2022-08-11T11:45:31;94772.59;;;26.73;54.20
23164;BME280;31429;42.674;23.350;2022-08-11T11:46:32;94762.03;;;26.91;54.58
23164;BME280;31429;42.674;23.350;2022-08-11T11:47:36;94750.59;;;27.00;56.27
23164;BME280;31429;42.674;23.350;2022-08-11T11:48:37;94768.88;;;27.43;56.02
23164;BME280;31429;42.674;23.350;2022-08-11T11:49:40;94764.28;;;27.53;55.71
23164;BME280;31429;42.674;23.350;2022-08-11T11:50:43;94757.75;;;27.57;57.76
23164;BME280;31429;42.674;23.350;2022-08-11T11:51:45;94757.81;;;27.98;60.32
23164;BME280;31429;42.674;23.350;2022-08-11T11:52:47;94720.53;;;27.86;63.62
23164;BME280;31429;42.674;23.350;2022-08-11T11:53:49;94636.63;;;27.02;55.61
23164;BME280;31429;42.674;23.350;2022-08-11T11:54:54;94766.47;;;27.66;56.48
23164;BME280;31429;42.674;23.350;2022-08-11T11:55:56;94752.72;;;27.96;63.54
23164;BME280;31429;42.674;23.350;2022-08-11T11:56:59;94717.00;;;27.53;57.13
23164;BME280;31429;42.674;23.350;2022-08-11T11:58:22;94740.56;;;26.87;58.88
23164;BME280;31429;42.674;23.350;2022-08-11T11:59:42;94760.28;;;26.99;60.94
23164;BME280;31429;42.674;23.350;2022-08-11T12:01:02;94761.81;;;27.44;61.00
23164;BME280;31429;42.674;23.350;2022-08-11T12:02:24;94763.84;;;27.16;60.00
23164;BME280;31429;42.674;23.350;2022-08-11T12:03:28;94758.19;;;27.45;65.26
23164;BME280;31429;42.674;23.350;2022-08-11T12:04:30;94763.84;;;27.58;58.90
23164;BME280;31429;42.674;23.350;2022-08-11T12:05:32;94757.56;;;27.51;64.99
23164;BME280;31429;42.674;23.350;2022-08-11T12:06:34;94752.19;;;27.18;60.04
23164;BME280;31429;42.674;23.350;2022-08-11T12:07:35;94741.91;;;26.99;62.09
23164;BME280;31429;42.674;23.350;2022-08-11T12:08:56;94698.34;;;26.47;64.73
23164;BME280;31429;42.674;23.350;2022-08-11T12:09:58;94706.34;;;26.45;65.27
23164;BME280;31429;42.674;23.350;2022-08-11T12:11:01;94754.22;;;26.99;65.40
23164;BME280;31429;42.674;23.350;2022-08-11T12:12:21;94728.34;;;27.04;60.21
23164;BME280;31429;42.674;23.350;2022-08-11T12:13:44;94744.13;;;27.20;60.06
23164;BME280;31429;42.674;23.350;2022-08-11T12:14:46;94743.13;;;27.55;66.68
23164;BME280;31429;42.674;23.350;2022-08-11T12:15:47;94715.91;;;27.56;63.54
23164;BME280;31429;42.674;23.350;2022-08-11T12:16:48;94742.19;;;27.96;66.26
23164;BME280;31429;42.674;23.350;2022-08-11T12:17:50;94740.72;;;28.02;63.87
23164;BME280;31429;42.674;23.350;2022-08-11T12:18:54;94716.41;;;27.91;64.37
23164;BME280;31429;42.674;23.350;2022-08-11T12:19:56;94734.66;;;28.01;59.42
23164;BME280;31429;42.674;23.350;2022-08-11T12:20:58;94686.25;;;27.29;59.67
23164;BME280;31429;42.674;23.350;2022-08-11T12:21:59;94747.78;;;27.27;61.39
23164;BME280;31429;42.674;23.350;2022-08-11T12:23:19;94745.59;;;27.14;63.42
23164;BME280;31429;42.674;23.350;2022-08-11T12:24:39;94728.41;;;27.28;65.27
23164;BME280;31429;42.674;23.350;2022-08-11T12:25:59;94751.91;;;27.29;62.61
23164;BME280;31429;42.674;23.350;2022-08-11T12:27:19;94745.44;;;27.16;67.62
23164;BME280;31429;42.674;23.350;2022-08-11T12:28:21;94751.03;;;27.21;65.44
23164;BME280;31429;42.674;23.350;2022-08-11T12:29:24;94746.34;;;27.40;69.95
23164;BME280;31429;42.674;23.350;2022-08-11T12:30:27;94735.72;;;27.50;63.53
23164;BME280;31429;42.674;23.350;2022-08-11T12:31:28;94722.75;;;27.49;65.22
23164;BME280;31429;42.674;23.350;2022-08-11T12:32:31;94756.09;;;27.56;61.46
23164;BME280;31429;42.674;23.350;2022-08-11T12:33:33;94740.72;;;27.27;66.50
23164;BME280;31429;42.674;23.350;2022-08-11T12:34:34;94742.97;;;26.80;68.38
23164;BME280;31429;42.674;23.350;2022-08-11T12:35:36;94753.00;;;26.85;67.14
23164;BME280;31429;42.674;23.350;2022-08-11T12:36:38;94753.09;;;27.01;71.87
23164;BME280;31429;42.674;23.350;2022-08-11T12:37:43;94751.59;;;26.73;64.98
23164;BME280;31429;42.674;23.350;2022-08-11T12:38:46;94716.59;;;26.13;69.87
23164;BME280;31429;42.674;23.350;2022-08-11T12:39:52;94755.97;;;26.39;71.83
23164;BME280;31429;42.674;23.350;2022-08-11T12:41:16;94714.97;;;26.63;70.06
23164;BME280;31429;42.674;23.350;2022-08-11T12:42:36;94694.31;;;26.86;67.58
23164;BME280;31429;42.674;23.350;2022-08-11T12:43:57;94753.56;;;27.38;62.51
23164;BME280;31429;42.674;23.350;2022-08-11T12:45:24;94707.34;;;27.04;65.71
23164;BME280;31429;42.674;23.350;2022-08-11T12:46:30;94756.72;;;27.50;63.84
23164;BME280;31429;42.674;23.350;2022-08-11T12:47:32;94750.56;;;27.33;69.37
23164;BME280;31429;42.674;23.350;2022-08-11T12:48:55;94764.47;;;27.18;64.86
23164;BME280;31429;42.674;23.350;2022-08-11T12:50:16;94752.88;;;27.28;71.56
23164;BME280;31429;42.674;23.350;2022-08-11T12:51:39;94741.44;;;26.96;63.63
23164;BME280;31429;42.674;23.350;2022-08-11T12:52:59;94774.25;;;26.13;68.61
23164;BME280;31429;42.674;23.350;2022-08-11T12:54:05;94763.91;;;26.29;75.38
23164;BME280;31429;42.674;23.350;2022-08-11T12:55:10;94764.22;;;26.26;70.03